sensor_id;sensor_type;location;lat;lon;timestamp;pressure;altitude;pressure_sealevel;temperature;humidity
48888;BME280;42598;53.802;-1.632;2023-01-27T19:16:32;102302.51;;;6.08;57.62
48888;BME280;42598;53.802;-1.632;2023-01-27T19:19:00;102302.72;;;6.60;56.68
48888;BME280;42598;53.802;-1.632;2023-01-27T19:21:28;102301.15;;;7.01;55.08
48888;BME280;42598;53.802;-1.632;2023-01-27T19:23:54;102302.61;;;7.88;53.57
48888;BME280;42598;53.802;-1.632;2023-01-27T19:26:22;102303.97;;;5.89;56.33
48888;BME280;42598;53.802;-1.632;2023-01-27T19:28:56;102306.18;;;6.34;57.83
48888;BME280;42598;53.802;-1.632;2023-01-27T19:31:23;102307.31;;;5.39;60.63
48888;BME280;42598;53.802;-1.632;2023-01-27T19:33:50;102312.55;;;5.30;61.12
48888;BME280;42598;53.802;-1.632;2023-01-27T19:36:21;102308.75;;;4.27;63.90
48888;BME280;42598;53.802;-1.632;2023-01-27T19:38:56;102307.78;;;5.04;62.77
48888;BME280;42598;53.802;-1.632;2023-01-27T19:41:32;102311.23;;;4.31;66.52
48888;BME280;42598;53.802;-1.632;2023-01-27T19:44:00;102316.23;;;5.94;61.81
48888;BME280;42598;53.802;-1.632;2023-01-27T19:46:27;102321.85;;;6.35;60.86
48888;BME280;42598;53.802;-1.632;2023-01-27T19:48:54;102321.35;;;5.70;62.90
48888;BME280;42598;53.802;-1.632;2023-01-27T19:51:22;102328.24;;;7.20;59.31
48888;BME280;42598;53.802;-1.632;2023-01-27T19:53:49;102324.23;;;5.39;61.62
48888;BME280;42598;53.802;-1.632;2023-01-27T19:56:19;102323.55;;;6.35;59.65
48888;BME280;42598;53.802;-1.632;2023-01-27T19:58:47;102323.77;;;6.55;59.07
48888;BME280;42598;53.802;-1.632;2023-01-27T20:01:15;102327.34;;;6.97;58.39
48888;BME280;42598;53.802;-1.632;2023-01-27T20:03:41;102329.98;;;7.17;56.72
48888;BME280;42598;53.802;-1.632;2023-01-27T20:06:13;102325.31;;;7.65;55.96
48888;BME280;42598;53.802;-1.632;2023-01-27T20:08:41;102321.68;;;7.24;56.63
48888;BME280;42598;53.802;-1.632;2023-01-27T20:11:27;102323.99;;;5.92;59.55
48888;BME280;42598;53.802;-1.632;2023-01-27T20:13:54;102327.41;;;7.09;57.97
48888;BME280;42598;53.802;-1.632;2023-01-27T20:16:21;102326.60;;;5.95;58.97
48888;BME280;42598;53.802;-1.632;2023-01-27T20:18:48;102325.19;;;7.42;57.55
48888;BME280;42598;53.802;-1.632;2023-01-27T20:21:15;102317.25;;;7.28;56.50
48888;BME280;42598;53.802;-1.632;2023-01-27T20:23:42;102318.75;;;7.60;55.21
48888;BME280;42598;53.802;-1.632;2023-01-27T20:26:11;102311.49;;;8.41;53.36
48888;BME280;42598;53.802;-1.632;2023-01-27T20:28:39;102312.51;;;7.82;53.45
48888;BME280;42598;53.802;-1.632;2023-01-27T20:31:10;102309.46;;;6.56;57.23
48888;BME280;42598;53.802;-1.632;2023-01-27T20:33:37;102308.24;;;7.77;54.55
48888;BME280;42598;53.802;-1.632;2023-01-27T20:36:05;102306.36;;;7.52;53.23
48888;BME280;42598;53.802;-1.632;2023-01-27T20:38:32;102311.02;;;6.70;55.52
48888;BME280;42598;53.802;-1.632;2023-01-27T20:41:04;102314.10;;;6.44;56.60
48888;BME280;42598;53.802;-1.632;2023-01-27T20:43:33;102312.65;;;7.49;54.70
48888;BME280;42598;53.802;-1.632;2023-01-27T20:46:02;102312.15;;;6.87;55.96
48888;BME280;42598;53.802;-1.632;2023-01-27T20:48:29;102316.69;;;6.98;56.09
48888;BME280;42598;53.802;-1.632;2023-01-27T20:50:57;102321.10;;;6.65;56.85
48888;BME280;42598;53.802;-1.632;2023-01-27T20:53:24;102322.65;;;7.91;54.49
48888;BME280;42598;53.802;-1.632;2023-01-27T20:55:51;102315.28;;;6.82;54.52
48888;BME280;42598;53.802;-1.632;2023-01-27T20:58:20;102316.04;;;5.76;57.77
48888;BME280;42598;53.802;-1.632;2023-01-27T21:00:47;102305.64;;;6.74;55.48
48888;BME280;42598;53.802;-1.632;2023-01-27T21:03:14;102299.02;;;6.16;55.37
48888;BME280;42598;53.802;-1.632;2023-01-27T21:05:41;102299.04;;;6.67;55.31
48888;BME280;42598;53.802;-1.632;2023-01-27T21:08:08;102292.79;;;6.85;54.79
48888;BME280;42598;53.802;-1.632;2023-01-27T21:10:35;102288.45;;;7.85;52.50
48888;BME280;42598;53.802;-1.632;2023-01-27T21:13:02;102280.53;;;8.30;51.99
48888;BME280;42598;53.802;-1.632;2023-01-27T21:15:29;102278.87;;;7.83;52.43
48888;BME280;42598;53.802;-1.632;2023-01-27T21:17:57;102283.23;;;6.22;55.86
48888;BME280;42598;53.802;-1.632;2023-01-27T21:20:24;102285.68;;;6.73;54.78
48888;BME280;42598;53.802;-1.632;2023-01-27T21:22:52;102285.86;;;6.71;54.86
48888;BME280;42598;53.802;-1.632;2023-01-27T21:25:19;102284.72;;;6.57;55.17
48888;BME280;42598;53.802;-1.632;2023-01-27T21:27:46;102283.78;;;6.52;55.14
48888;BME280;42598;53.802;-1.632;2023-01-27T21:30:13;102283.89;;;5.65;56.13
48888;BME280;42598;53.802;-1.632;2023-01-27T21:32:41;102286.80;;;6.36;55.64
48888;BME280;42598;53.802;-1.632;2023-01-27T21:35:08;102287.17;;;6.60;55.58
48888;BME280;42598;53.802;-1.632;2023-01-27T21:37:35;102287.01;;;7.30;54.94
48888;BME280;42598;53.802;-1.632;2023-01-27T21:40:02;102283.61;;;7.30;53.78
48888;BME280;42598;53.802;-1.632;2023-01-27T21:42:29;102280.12;;;7.03;54.75
48888;BME280;42598;53.802;-1.632;2023-01-27T21:44:57;102281.29;;;6.69;56.06
48888;BME280;42598;53.802;-1.632;2023-01-27T21:47:24;102278.50;;;7.33;54.45
48888;BME280;42598;53.802;-1.632;2023-01-27T21:49:51;102267.36;;;7.64;53.96
48888;BME280;42598;53.802;-1.632;2023-01-27T21:52:19;102258.50;;;8.11;53.43
48888;BME280;42598;53.802;-1.632;2023-01-27T21:54:46;102257.85;;;8.59;52.44
48888;BME280;42598;53.802;-1.632;2023-01-27T21:57:15;102261.43;;;7.60;53.18
48888;BME280;42598;53.802;-1.632;2023-01-27T21:59:42;102259.41;;;7.00;54.99
48888;BME280;42598;53.802;-1.632;2023-01-27T22:02:10;102257.34;;;7.02;53.99
48888;BME280;42598;53.802;-1.632;2023-01-27T22:04:39;102260.46;;;6.16;56.43
48888;BME280;42598;53.802;-1.632;2023-01-27T22:07:06;102258.85;;;7.42;55.03
48888;BME280;42598;53.802;-1.632;2023-01-27T22:09:33;102252.95;;;7.87;53.80
48888;BME280;42598;53.802;-1.632;2023-01-27T22:12:00;102249.07;;;8.06;52.17
48888;BME280;42598;53.802;-1.632;2023-01-27T22:14:28;102245.90;;;8.46;52.35
48888;BME280;42598;53.802;-1.632;2023-01-27T22:16:54;102246.51;;;7.97;53.05
48888;BME280;42598;53.802;-1.632;2023-01-27T22:19:21;102248.97;;;8.46;51.72
48888;BME280;42598;53.802;-1.632;2023-01-27T22:21:48;102255.33;;;7.37;54.13
48888;BME280;42598;53.802;-1.632;2023-01-27T22:24:15;102260.43;;;6.69;55.14
48888;BME280;42598;53.802;-1.632;2023-01-27T22:26:42;102260.83;;;7.60;53.11
48888;BME280;42598;53.802;-1.632;2023-01-27T22:29:09;102256.94;;;7.71;53.54
48888;BME280;42598;53.802;-1.632;2023-01-27T22:31:37;102253.10;;;6.89;55.30
48888;BME280;42598;53.802;-1.632;2023-01-27T22:34:04;102242.74;;;7.81;54.17
48888;BME280;42598;53.802;-1.632;2023-01-27T22:36:31;102241.69;;;7.96;54.36
48888;BME280;42598;53.802;-1.632;2023-01-27T22:38:58;102246.30;;;7.28;55.40
48888;BME280;42598;53.802;-1.632;2023-01-27T22:41:25;102244.03;;;7.38;55.73
48888;BME280;42598;53.802;-1.632;2023-01-27T22:43:54;102240.93;;;7.54;54.83
48888;BME280;42598;53.802;-1.632;2023-01-27T22:46:21;102235.30;;;8.14;52.94
48888;BME280;42598;53.802;-1.632;2023-01-27T22:48:49;102235.17;;;8.67;53.04
48888;BME280;42598;53.802;-1.632;2023-01-27T22:51:16;102231.02;;;8.46;52.64
48888;BME280;42598;53.802;-1.632;2023-01-27T22:53:43;102234.50;;;7.57;54.72
48888;BME280;42598;53.802;-1.632;2023-01-27T22:56:12;102236.84;;;6.84;56.83
48888;BME280;42598;53.802;-1.632;2023-01-27T22:58:39;102237.01;;;6.87;56.70
48888;BME280;42598;53.802;-1.632;2023-01-27T23:01:07;102235.22;;;6.51;55.99
48888;BME280;42598;53.802;-1.632;2023-01-27T23:03:34;102238.55;;;6.99;54.98
48888;BME280;42598;53.802;-1.632;2023-01-27T23:06:03;102237.37;;;6.32;57.67
48888;BME280;42598;53.802;-1.632;2023-01-27T23:08:30;102239.19;;;7.44;54.95
48888;BME280;42598;53.802;-1.632;2023-01-27T23:10:59;102236.81;;;6.73;54.91
48888;BME280;42598;53.802;-1.632;2023-01-27T23:13:26;102233.69;;;6.87;56.93
48888;BME280;42598;53.802;-1.632;2023-01-27T23:15:53;102225.10;;;7.42;54.96
48888;BME280;42598;53.802;-1.632;2023-01-27T23:18:22;102221.93;;;7.78;54.13
48888;BME280;42598;53.802;-1.632;2023-01-27T23:20:50;102225.23;;;6.65;56.32
48888;BME280;42598;53.802;-1.632;2023-01-27T23:23:17;102226.55;;;6.88;56.01
48888;BME280;42598;53.802;-1.632;2023-01-27T23:25:46;102218.56;;;7.22;54.71
48888;BME280;42598;53.802;-1.632;2023-01-27T23:28:15;102216.03;;;6.91;56.07
48888;BME280;42598;53.802;-1.632;2023-01-27T23:30:44;102213.07;;;5.91;57.84
48888;BME280;42598;53.802;-1.632;2023-01-27T23:33:13;102201.65;;;5.42;59.94
48888;BME280;42598;53.802;-1.632;2023-01-27T23:35:40;102192.53;;;5.61;59.93
48888;BME280;42598;53.802;-1.632;2023-01-27T23:38:08;102185.73;;;7.21;56.05
48888;BME280;42598;53.802;-1.632;2023-01-27T23:40:35;102185.82;;;6.51;57.56
48888;BME280;42598;53.802;-1.632;2023-01-27T23:43:04;102181.85;;;7.01;55.70
48888;BME280;42598;53.802;-1.632;2023-01-27T23:45:31;102180.40;;;6.54;56.65
48888;BME280;42598;53.802;-1.632;2023-01-27T23:47:58;102177.84;;;7.03;55.97
48888;BME280;42598;53.802;-1.632;2023-01-27T23:50:25;102176.49;;;7.56;55.16
48888;BME280;42598;53.802;-1.632;2023-01-27T23:52:53;102187.51;;;6.04;58.49
48888;BME280;42598;53.802;-1.632;2023-01-27T23:55:20;102179.99;;;7.23;55.46
48888;BME280;42598;53.802;-1.632;2023-01-27T23:57:47;102183.88;;;6.43;57.36
